Time;durP1;ratioP1;P1;durP2;ratioP2;P2;SDS_P1;SDS_P2;PMS_P1;PMS_P2;Temp;Humidity;BMP_temperature;BMP_pressure;BME280_temperature;BME280_humidity;BME280_pressure;Samples;Min_cycle;Max_cycle;Signal;HPM_P1;HPM_P2
2023/07/05 00:00:16;;;;;;;15.95;7.00;;;;;;;-143.48;100.00;118439.88;5073644;28;20044;-65
2023/07/05 00:02:42;;;;;;;15.52;7.20;;;;;;;-143.48;100.00;118439.88;5074154;28;20077;-65
2023/07/05 00:05:07;;;;;;;12.68;7.15;;;;;;;-143.48;100.00;118439.88;5056001;28;20476;-66
2023/07/05 00:07:33;;;;;;;14.70;7.22;;;;;;;-143.48;100.00;118439.88;5055298;28;20159;-65
2023/07/05 00:09:58;;;;;;;14.75;7.35;;;;;;;-143.48;100.00;118439.88;5073362;28;20029;-66
2023/07/05 00:12:24;;;;;;;15.70;7.45;;;;;;;-143.48;100.00;118439.88;5073316;28;20047;-65
2023/07/05 00:14:49;;;;;;;21.45;7.93;;;;;;;-143.48;100.00;118439.88;5073236;28;20028;-65
2023/07/05 00:17:14;;;;;;;16.17;7.03;;;;;;;-143.48;100.00;118439.88;5073296;28;20073;-65
2023/07/05 00:19:41;;;;;;;17.52;7.30;;;;;;;-143.48;100.00;118439.88;5073241;28;20024;-65
2023/07/05 00:22:06;;;;;;;20.70;7.70;;;;;;;-143.48;100.00;118439.88;5055256;28;20525;-66
2023/07/05 00:24:32;;;;;;;18.10;8.95;;;;;;;-143.48;100.00;118439.88;5073243;28;20020;-66
2023/07/05 00:26:57;;;;;;;20.00;8.48;;;;;;;-143.48;100.00;118439.88;5073334;28;20565;-66
2023/07/05 00:29:22;;;;;;;15.25;7.93;;;;;;;-143.48;100.00;118439.88;5073280;28;20024;-66
2023/07/05 00:31:47;;;;;;;16.48;7.88;;;;;;;-143.48;100.00;118439.88;5075433;28;20204;-66
2023/07/05 00:34:13;;;;;;;19.90;8.40;;;;;;;-143.48;100.00;118439.88;5076405;28;20054;-66
2023/07/05 00:36:39;;;;;;;15.90;8.55;;;;;;;-143.48;100.00;118439.88;5059111;28;20032;-66
2023/07/05 00:39:04;;;;;;;18.23;8.57;;;;;;;-143.48;100.00;118439.88;5076982;28;20032;-65
2023/07/05 00:41:29;;;;;;;14.40;8.02;;;;;;;-143.48;100.00;118439.88;5058698;28;20492;-65
2023/07/05 00:43:54;;;;;;;15.30;7.53;;;;;;;-143.48;100.00;118439.88;5077940;28;20516;-65
2023/07/05 00:46:25;;;;;;;16.75;7.90;;;;;;;-143.48;100.00;118439.88;5083119;28;20079;-65
2023/07/05 00:48:59;;;;;;;19.65;7.88;;;;;;;-143.48;100.00;118439.88;5064904;28;20035;-65
2023/07/05 00:51:57;;;;;;;17.80;7.95;;;;;;;-143.48;100.00;118439.88;5083116;28;20029;-65
2023/07/05 00:54:31;;;;;;;18.33;8.02;;;;;;;-143.48;100.00;118439.88;5056978;28;20035;-65
2023/07/05 00:57:02;;;;;;;13.52;7.60;;;;;;;-143.48;100.00;118439.88;5079596;28;20388;-65
2023/07/05 00:59:33;;;;;;;13.68;7.38;;;;;;;-143.48;100.00;118439.88;5079553;28;20047;-64
2023/07/05 01:01:58;;;;;;;13.60;7.20;;;;;;;-143.48;100.00;118439.88;5061548;28;20024;-65
2023/07/05 01:04:24;;;;;;;14.52;7.53;;;;;;;-143.48;100.00;118439.88;5079492;28;20073;-65
2023/07/05 01:06:49;;;;;;;13.00;6.85;;;;;;;-143.48;100.00;118439.88;5079199;28;20070;-65
2023/07/05 01:09:14;;;;;;;11.63;6.80;;;;;;;-143.48;100.00;118439.88;5079558;28;20094;-66
2023/07/05 01:11:52;;;;;;;10.65;5.90;;;;;;;-143.48;100.00;118439.88;5061412;28;20052;-65
2023/07/05 01:14:52;;;;;;;10.70;5.97;;;;;;;-143.48;100.00;118439.88;5080407;28;20027;-66
2023/07/05 01:17:35;;;;;;;13.45;6.15;;;;;;;-143.48;100.00;118439.88;5049830;28;20063;-65
2023/07/05 01:20:24;;;;;;;10.85;6.07;;;;;;;-143.48;100.00;118439.88;5080996;28;20078;-66
2023/07/05 01:23:07;;;;;;;13.40;6.07;;;;;;;-143.48;100.00;118439.88;5079209;28;20025;-66
2023/07/05 01:25:32;;;;;;;12.73;5.95;;;;;;;-143.48;100.00;118439.88;5079297;28;20024;-66
2023/07/05 01:28:17;;;;;;;14.98;6.30;;;;;;;-143.48;100.00;118439.88;5079358;28;20081;-66
2023/07/05 01:31:01;;;;;;;17.25;6.63;;;;;;;-143.48;100.00;118439.88;5079263;28;20020;-66
2023/07/05 01:34:03;;;;;;;12.98;6.13;;;;;;;-143.48;100.00;118439.88;5079257;28;20044;-66
2023/07/05 01:36:30;;;;;;;14.23;6.00;;;;;;;-143.48;100.00;118439.88;4995271;28;20032;-66
2023/07/05 01:38:55;;;;;;;12.70;5.70;;;;;;;-143.48;100.00;118439.88;5079249;28;20476;-66
2023/07/05 01:41:22;;;;;;;11.80;5.90;;;;;;;-143.48;100.00;118439.88;5079152;28;20021;-66
2023/07/05 01:43:49;;;;;;;11.48;5.57;;;;;;;-143.48;100.00;118439.88;5079069;28;20032;-66
2023/07/05 01:46:25;;;;;;;8.73;5.03;;;;;;;-143.48;100.00;118439.88;5079077;28;20024;-66
2023/07/05 01:49:21;;;;;;;9.88;4.63;;;;;;;-143.48;100.00;118439.88;5079649;28;20044;-66
2023/07/05 01:51:58;;;;;;;10.18;4.82;;;;;;;-143.48;100.00;118439.88;5082329;28;20067;-66
2023/07/05 01:55:02;;;;;;;10.27;4.45;;;;;;;-143.48;100.00;118439.88;5061635;28;20017;-66
2023/07/05 01:57:33;;;;;;;7.90;4.05;;;;;;;-143.48;100.00;118439.88;5075339;28;20028;-67
2023/07/05 02:00:05;;;;;;;8.52;4.28;;;;;;;-143.48;100.00;118439.88;5075896;28;20028;-66
2023/07/05 02:02:37;;;;;;;7.32;4.32;;;;;;;-143.48;100.00;118439.88;5057828;28;20025;-66
2023/07/05 02:05:05;;;;;;;6.22;3.60;;;;;;;-143.48;100.00;118439.88;5057836;28;20087;-66
2023/07/05 02:07:32;;;;;;;8.07;3.78;;;;;;;-143.48;100.00;118439.88;5075700;28;20056;-66
2023/07/05 02:09:58;;;;;;;8.68;3.75;;;;;;;-143.48;100.00;118439.88;5057973;28;20089;-66
2023/07/05 02:12:24;;;;;;;7.85;3.78;;;;;;;-143.48;100.00;118439.88;5075526;28;20021;-66
2023/07/05 02:14:50;;;;;;;8.75;3.50;;;;;;;-143.48;100.00;118439.88;5075610;28;20029;-66
2023/07/05 02:17:17;;;;;;;6.25;3.30;;;;;;;-143.48;100.00;118439.88;5075648;28;20021;-66
2023/07/05 02:19:42;;;;;;;6.32;3.50;;;;;;;-143.48;100.00;118439.88;5075617;28;20417;-66
2023/07/05 02:22:07;;;;;;;7.10;3.20;;;;;;;-143.48;100.00;118439.88;5075337;28;20177;-66
2023/07/05 02:24:33;;;;;;;6.68;2.78;;;;;;;-143.48;100.00;118439.88;5077264;28;20078;-66
2023/07/05 02:26:59;;;;;;;5.93;2.80;;;;;;;-143.48;100.00;118439.88;5061750;28;20020;-65
2023/07/05 02:29:25;;;;;;;5.88;2.55;;;;;;;-143.48;100.00;118439.88;5061412;28;20105;-66
2023/07/05 02:31:50;;;;;;;4.95;2.40;;;;;;;-143.48;100.00;118439.88;5061855;28;20032;-64
2023/07/05 02:34:15;;;;;;;6.82;2.60;;;;;;;-143.48;100.00;118439.88;5080228;28;20375;-66
2023/07/05 02:36:41;;;;;;;5.57;2.10;;;;;;;-143.48;100.00;118439.88;5081260;28;20403;-65
2023/07/05 02:39:06;;;;;;;8.63;2.60;;;;;;;-143.48;100.00;118439.88;5080171;28;20514;-66
2023/07/05 02:41:31;;;;;;;5.18;2.45;;;;;;;-143.48;100.00;118439.88;5080107;28;20084;-66
2023/07/05 02:43:57;;;;;;;11.63;2.40;;;;;;;-143.48;99.82;118439.88;5061977;28;20112;-65
2023/07/05 02:46:25;;;;;;;5.00;2.35;;;;;;;-143.48;99.31;118439.88;5078097;28;20031;-66
2023/07/05 02:48:52;;;;;;;8.40;2.20;;;;;;;-143.48;99.98;118439.88;5075502;28;20103;-66
2023/07/05 02:51:17;;;;;;;12.82;2.70;;;;;;;-143.48;100.00;118439.88;5057744;28;20067;-67
2023/07/05 02:53:42;;;;;;;8.40;2.60;;;;;;;-143.48;100.00;118439.88;5057405;28;20035;-65
2023/07/05 02:56:07;;;;;;;9.98;2.83;;;;;;;-143.48;99.42;118439.88;5057376;28;20016;-66
2023/07/05 02:58:33;;;;;;;8.57;2.83;;;;;;;-143.48;100.00;118439.88;5075205;28;20392;-69
2023/07/05 03:00:58;;;;;;;17.45;3.05;;;;;;;-143.48;100.00;118439.88;5075100;28;20090;-65
2023/07/05 03:03:26;;;;;;;7.53;2.88;;;;;;;-143.48;99.34;118439.88;5075008;28;20035;-66
2023/07/05 03:05:55;;;;;;;6.03;2.75;;;;;;;-143.48;99.47;118439.88;5074837;28;20084;-66
2023/07/05 03:08:21;;;;;;;10.85;3.13;;;;;;;-143.48;98.16;118439.88;5089560;28;20059;-66
2023/07/05 03:10:46;;;;;;;11.02;3.85;;;;;;;-143.48;97.52;118439.88;5094610;28;20020;-65
2023/07/05 03:13:11;;;;;;;6.45;3.20;;;;;;;-143.48;98.04;118439.88;5094695;28;20020;-66
2023/07/05 03:15:37;;;;;;;8.23;3.50;;;;;;;-143.48;96.93;118439.88;5094633;28;20491;-66
2023/07/05 03:18:02;;;;;;;6.20;3.30;;;;;;;-143.48;96.91;118439.88;5094547;28;20023;-66
2023/07/05 03:20:27;;;;;;;7.80;3.75;;;;;;;-143.48;98.06;118439.88;5094455;28;20073;-66
2023/07/05 03:22:53;;;;;;;11.15;3.60;;;;;;;-143.48;96.88;118439.88;5094280;28;20016;-66
2023/07/05 03:25:18;;;;;;;8.63;3.75;;;;;;;-143.48;96.29;118439.88;5094393;28;20032;-66
2023/07/05 03:27:43;;;;;;;7.00;3.22;;;;;;;-143.48;95.75;118439.88;5076171;28;20054;-67
2023/07/05 03:30:09;;;;;;;8.07;3.30;;;;;;;-143.48;96.49;118439.88;5076032;28;20123;-67
2023/07/05 03:32:35;;;;;;;8.98;3.63;;;;;;;-143.48;96.77;118439.88;5094307;28;20109;-66
2023/07/05 03:35:00;;;;;;;8.10;3.38;;;;;;;-143.48;96.16;118439.88;5076064;28;20023;-66
2023/07/05 03:37:28;;;;;;;7.18;3.75;;;;;;;-143.48;96.06;118439.88;5094174;28;20031;-65
2023/07/05 03:39:54;;;;;;;6.80;3.42;;;;;;;-143.48;96.67;118439.88;5094187;28;20015;-66
2023/07/05 03:42:19;;;;;;;7.25;3.30;;;;;;;-143.48;96.17;118439.88;5094100;28;20111;-64
2023/07/05 03:44:44;;;;;;;8.18;3.55;;;;;;;-143.48;96.44;118439.88;5075715;28;20023;-66
2023/07/05 03:47:09;;;;;;;6.55;3.47;;;;;;;-143.48;97.21;118439.88;5075847;28;20020;-66
2023/07/05 03:49:35;;;;;;;6.90;3.35;;;;;;;-143.48;97.32;118439.88;5075854;28;20100;-67
2023/07/05 03:52:00;;;;;;;6.50;3.60;;;;;;;-143.48;96.33;118439.88;5093854;28;20032;-66
2023/07/05 03:54:26;;;;;;;9.25;3.83;;;;;;;-143.48;96.36;118439.88;5093972;28;20020;-66
2023/07/05 03:56:51;;;;;;;9.23;4.10;;;;;;;-143.48;97.02;118439.88;5093803;28;20023;-67
2023/07/05 03:59:16;;;;;;;7.25;3.95;;;;;;;-143.48;95.88;118439.88;5093957;28;20023;-65
2023/07/05 04:01:42;;;;;;;13.25;4.10;;;;;;;-143.48;95.67;118439.88;5075563;28;20109;-66
2023/07/05 04:04:07;;;;;;;8.45;4.00;;;;;;;-143.48;95.52;118439.88;5093622;28;20023;-66
2023/07/05 04:06:33;;;;;;;7.07;3.92;;;;;;;-143.48;95.87;118439.88;5075316;28;20023;-66
2023/07/05 04:08:59;;;;;;;8.57;3.80;;;;;;;-143.48;95.38;118439.88;5075521;28;20023;-66
2023/07/05 04:11:25;;;;;;;12.13;4.35;;;;;;;-143.48;95.47;118439.88;5093584;28;20027;-65
2023/07/05 04:13:52;;;;;;;10.13;4.30;;;;;;;-143.48;96.27;118439.88;5093479;28;20391;-66
2023/07/05 04:16:21;;;;;;;7.47;4.00;;;;;;;-143.48;95.15;118439.88;5093477;28;20423;-65
2023/07/05 04:18:50;;;;;;;6.70;3.60;;;;;;;-143.48;93.83;118439.88;5093128;28;20360;-66
2023/07/05 04:21:15;;;;;;;7.10;3.90;;;;;;;-143.48;93.67;118439.88;5093679;28;20492;-66
2023/07/05 04:23:41;;;;;;;11.45;4.10;;;;;;;-143.48;92.73;118439.88;5093255;28;20058;-66
2023/07/05 04:26:19;;;;;;;9.15;3.75;;;;;;;-143.48;91.97;118439.88;5093344;28;20313;-65
2023/07/05 04:28:45;;;;;;;8.85;4.30;;;;;;;-143.48;91.88;118439.88;5093316;28;20089;-65
2023/07/05 04:31:15;;;;;;;7.78;3.60;;;;;;;-143.48;90.86;118439.88;5093356;28;20409;-66
2023/07/05 04:33:41;;;;;;;10.43;3.90;;;;;;;-143.48;91.27;118439.88;5093353;28;20020;-65
2023/07/05 04:36:07;;;;;;;6.82;3.92;;;;;;;-143.48;91.08;118439.88;5093178;28;20024;-66
2023/07/05 04:38:32;;;;;;;8.15;3.90;;;;;;;-143.48;91.28;118439.88;5075284;28;20165;-65
2023/07/05 04:40:58;;;;;;;9.73;4.00;;;;;;;-143.48;92.55;118439.88;5093249;28;20051;-65
2023/07/05 04:43:25;;;;;;;7.63;4.10;;;;;;;-143.48;95.57;118439.88;5074968;28;20032;-65
2023/07/05 04:45:52;;;;;;;8.05;4.25;;;;;;;-143.48;97.48;118439.88;5093045;28;20077;-67
2023/07/05 04:48:18;;;;;;;7.32;3.90;;;;;;;-143.48;98.66;118439.88;5093185;28;20537;-64
2023/07/05 04:50:43;;;;;;;7.32;4.00;;;;;;;-143.48;99.35;118439.88;5093089;28;20020;-65
2023/07/05 04:53:09;;;;;;;7.43;4.15;;;;;;;-143.48;100.00;118439.88;5093035;28;20104;-64
2023/07/05 04:55:34;;;;;;;12.90;4.82;;;;;;;-143.48;100.00;118439.88;5093042;28;20030;-65
2023/07/05 04:58:03;;;;;;;8.95;4.00;;;;;;;-143.48;100.00;118439.88;5074880;28;20054;-64
2023/07/05 05:00:29;;;;;;;8.02;4.07;;;;;;;-143.48;100.00;118439.88;5074906;28;20032;-65
2023/07/05 05:02:54;;;;;;;8.57;4.25;;;;;;;-143.48;100.00;118439.88;5092773;28;20020;-65
2023/07/05 05:05:20;;;;;;;9.07;3.85;;;;;;;-143.48;100.00;118439.88;5074817;28;20039;-65
2023/07/05 05:07:45;;;;;;;8.70;4.25;;;;;;;-143.48;100.00;118439.88;5092788;28;20111;-65
2023/07/05 05:10:11;;;;;;;7.55;4.25;;;;;;;-143.48;100.00;118439.88;5092836;28;20387;-64
2023/07/05 05:12:36;;;;;;;9.15;4.10;;;;;;;-143.48;100.00;118439.88;5092743;28;20540;-63
2023/07/05 05:15:02;;;;;;;7.72;3.90;;;;;;;-143.48;100.00;118439.88;5092840;28;20034;-64
2023/07/05 05:17:27;;;;;;;8.10;3.70;;;;;;;-143.48;100.00;118439.88;5074421;28;20031;-64
2023/07/05 05:19:53;;;;;;;6.53;3.15;;;;;;;-143.48;100.00;118439.88;5093033;28;20024;-66
2023/07/05 05:22:18;;;;;;;18.38;3.65;;;;;;;-143.48;100.00;118439.88;5074436;28;20514;-65
2023/07/05 05:24:44;;;;;;;6.95;3.20;;;;;;;-143.48;100.00;118439.88;5074554;28;20559;-64
2023/07/05 05:27:09;;;;;;;10.05;3.13;;;;;;;-143.48;100.00;118439.88;5074560;28;20122;-65
2023/07/05 05:29:34;;;;;;;9.65;3.67;;;;;;;-143.48;100.00;118439.88;5092895;28;20032;-65
2023/07/05 05:32:00;;;;;;;14.02;4.18;;;;;;;-143.48;100.00;118439.88;5094743;28;20107;-66
2023/07/05 05:34:26;;;;;;;8.85;3.55;;;;;;;-143.48;100.00;118439.88;5078557;28;20110;-65
2023/07/05 05:36:52;;;;;;;16.50;3.97;;;;;;;-143.48;100.00;118439.88;5078159;28;20020;-65
2023/07/05 05:39:18;;;;;;;10.25;2.88;;;;;;;-143.48;100.00;118439.88;5096509;28;20028;-64
2023/07/05 05:41:43;;;;;;;8.63;3.83;;;;;;;-143.48;100.00;118439.88;5096448;28;20017;-65
2023/07/05 05:44:08;;;;;;;9.77;2.70;;;;;;;-143.48;100.00;118439.88;5096095;28;20020;-66
2023/07/05 05:46:34;;;;;;;6.13;2.72;;;;;;;-143.48;100.00;118439.88;5096161;28;20055;-66
2023/07/05 05:48:59;;;;;;;11.75;3.88;;;;;;;-143.48;100.00;118439.88;5096249;28;20106;-64
2023/07/05 05:51:25;;;;;;;7.97;2.90;;;;;;;-143.48;100.00;118439.88;5096131;28;20031;-63
2023/07/05 05:53:51;;;;;;;7.53;3.05;;;;;;;-143.48;100.00;118439.88;5095961;28;20031;-63
2023/07/05 05:56:16;;;;;;;7.50;3.05;;;;;;;-143.48;100.00;118439.88;5096052;28;20023;-66
2023/07/05 05:58:41;;;;;;;5.63;2.20;;;;;;;-143.48;100.00;118439.88;5077816;28;20093;-64
2023/07/05 06:01:07;;;;;;;5.40;2.08;;;;;;;-143.48;100.00;118439.88;5095973;28;20065;-64
2023/07/05 06:03:33;;;;;;;6.35;2.17;;;;;;;-143.48;100.00;118439.88;5095795;28;20024;-66
2023/07/05 06:05:58;;;;;;;6.00;2.00;;;;;;;-143.48;100.00;118439.88;5095800;28;20028;-65
2023/07/05 06:08:24;;;;;;;7.68;1.80;;;;;;;-143.48;100.00;118439.88;5095725;28;20173;-66
2023/07/05 06:11:03;;;;;;;5.57;2.05;;;;;;;-143.48;100.00;118439.88;5095661;28;20085;-64
2023/07/05 06:13:29;;;;;;;13.80;2.13;;;;;;;-143.48;100.00;118439.88;5096000;28;20016;-64
2023/07/05 06:15:56;;;;;;;11.38;2.15;;;;;;;-143.48;100.00;118439.88;5095836;28;20035;-64
2023/07/05 06:18:21;;;;;;;8.48;1.60;;;;;;;-143.48;100.00;118439.88;5077502;28;20039;-66
2023/07/05 06:20:47;;;;;;;10.15;1.80;;;;;;;-143.48;100.00;118439.88;5095589;28;20047;-65
2023/07/05 06:23:12;;;;;;;10.82;2.30;;;;;;;-143.48;100.00;118439.88;5077348;28;20027;-65
2023/07/05 06:25:37;;;;;;;8.27;1.50;;;;;;;-143.48;100.00;118439.88;5095608;28;20028;-64
2023/07/05 06:28:03;;;;;;;7.68;1.42;;;;;;;-143.48;100.00;118439.88;5095691;28;20027;-64
2023/07/05 06:30:28;;;;;;;9.73;2.17;;;;;;;-143.48;100.00;118439.88;5095402;28;20035;-64
2023/07/05 06:32:55;;;;;;;10.60;2.17;;;;;;;-143.48;100.00;118439.88;5076854;28;20502;-65
2023/07/05 06:35:20;;;;;;;6.50;1.50;;;;;;;-143.48;100.00;118439.88;5094964;28;20091;-64
2023/07/05 06:37:46;;;;;;;8.30;2.05;;;;;;;-143.48;100.00;118439.88;5094983;28;20043;-66
2023/07/05 06:40:12;;;;;;;7.53;1.92;;;;;;;-143.48;100.00;118439.88;5094885;28;20053;-65
2023/07/05 06:42:37;;;;;;;10.57;1.83;;;;;;;-143.48;100.00;118439.88;5094479;28;20391;-65
2023/07/05 06:45:03;;;;;;;10.57;1.90;;;;;;;-143.48;100.00;118439.88;5094775;28;20035;-64
2023/07/05 06:47:28;;;;;;;6.90;1.90;;;;;;;-143.48;100.00;118439.88;5095240;28;20032;-64
2023/07/05 06:49:54;;;;;;;5.32;1.67;;;;;;;-143.48;100.00;118439.88;5095113;28;20103;-66
2023/07/05 06:52:19;;;;;;;8.23;2.22;;;;;;;-143.48;100.00;118439.88;5076988;28;20122;-64
2023/07/05 06:54:44;;;;;;;9.15;1.58;;;;;;;-143.48;100.00;118439.88;5095162;28;20329;-65
2023/07/05 06:57:10;;;;;;;8.25;1.80;;;;;;;-143.48;100.00;118439.88;5094829;28;20078;-64
2023/07/05 06:59:35;;;;;;;11.57;1.80;;;;;;;-143.48;100.00;118439.88;5094805;28;20099;-64
2023/07/05 07:02:01;;;;;;;13.52;1.77;;;;;;;-143.48;100.00;118439.88;5094726;28;20024;-64
2023/07/05 07:04:28;;;;;;;11.95;1.95;;;;;;;-143.48;100.00;118439.88;5094671;28;20020;-63
2023/07/05 07:06:54;;;;;;;4.60;1.73;;;;;;;-143.48;100.00;118439.88;5094572;28;20056;-63
2023/07/05 07:09:19;;;;;;;7.07;2.50;;;;;;;-143.48;100.00;118439.88;5094805;28;20545;-64
2023/07/05 07:11:44;;;;;;;10.75;2.38;;;;;;;-143.48;100.00;118439.88;5094599;28;20028;-64
2023/07/05 07:14:10;;;;;;;10.52;2.30;;;;;;;-143.48;100.00;118439.88;5076206;28;20020;-64
2023/07/05 07:16:35;;;;;;;11.07;2.70;;;;;;;-143.48;100.00;118439.88;5094539;28;20024;-65
2023/07/05 07:19:00;;;;;;;9.13;2.70;;;;;;;-143.48;100.00;118439.88;5094351;28;20081;-64
2023/07/05 07:21:26;;;;;;;11.43;2.53;;;;;;;-143.48;100.00;118439.88;5076127;28;20161;-66
2023/07/05 07:23:51;;;;;;;10.48;2.50;;;;;;;-143.48;100.00;118439.88;5094274;28;20372;-65
2023/07/05 07:26:20;;;;;;;11.48;2.63;;;;;;;-143.48;100.00;118439.88;5094759;28;20024;-64
2023/07/05 07:28:47;;;;;;;8.95;2.53;;;;;;;-143.48;100.00;118439.88;5094225;28;20332;-64
2023/07/05 07:31:16;;;;;;;14.90;3.13;;;;;;;-143.48;100.00;118439.88;5094245;28;20016;-65
2023/07/05 07:33:43;;;;;;;18.08;3.47;;;;;;;-143.48;100.00;118439.88;5075964;28;20075;-66
2023/07/05 07:36:12;;;;;;;13.75;2.92;;;;;;;-143.48;100.00;118439.88;5094172;28;20492;-64
2023/07/05 07:38:38;;;;;;;15.05;3.15;;;;;;;-143.48;100.00;118439.88;5074675;28;20022;-64
2023/07/05 07:41:04;;;;;;;12.43;2.53;;;;;;;-143.48;100.00;118439.88;5094001;28;20024;-65
2023/07/05 07:43:29;;;;;;;20.27;3.50;;;;;;;-143.48;100.00;118439.88;5075685;28;20364;-65
2023/07/05 07:45:55;;;;;;;16.23;3.15;;;;;;;-143.48;100.00;118439.88;5093969;28;20019;-65
2023/07/05 07:48:20;;;;;;;15.07;3.67;;;;;;;-143.48;100.00;118439.88;5075833;28;20078;-64
2023/07/05 07:50:50;;;;;;;25.58;3.67;;;;;;;-143.48;100.00;118439.88;5075615;28;20035;-63
2023/07/05 07:53:15;;;;;;;17.02;2.88;;;;;;;-143.48;100.00;118439.88;5093657;28;20012;-65
2023/07/05 07:55:40;;;;;;;19.20;3.17;;;;;;;-143.48;100.00;118439.88;5093197;28;20035;-64
2023/07/05 07:58:06;;;;;;;14.80;2.88;;;;;;;-143.48;100.00;118439.88;5093792;28;20384;-66
2023/07/05 08:00:31;;;;;;;17.08;3.15;;;;;;;-143.48;100.00;118439.88;5075468;28;20019;-64
2023/07/05 08:02:57;;;;;;;16.52;3.35;;;;;;;-143.48;100.00;118439.88;5075333;28;20028;-64
2023/07/05 08:05:23;;;;;;;20.85;3.58;;;;;;;-143.48;100.00;118439.88;5075442;28;20016;-66
2023/07/05 08:07:49;;;;;;;20.95;3.88;;;;;;;-143.48;100.00;118439.88;5093339;28;20127;-64
2023/07/05 08:10:15;;;;;;;17.73;3.40;;;;;;;-143.48;100.00;118439.88;5093533;28;20031;-64
2023/07/05 08:12:40;;;;;;;17.25;3.53;;;;;;;-143.48;100.00;118439.88;5093319;28;20020;-64
2023/07/05 08:15:06;;;;;;;19.58;3.80;;;;;;;-143.48;100.00;118439.88;5075200;28;20028;-65
2023/07/05 08:17:31;;;;;;;12.25;2.90;;;;;;;-143.48;100.00;118439.88;5093237;28;20020;-63
2023/07/05 08:19:57;;;;;;;22.35;3.90;;;;;;;-143.48;100.00;118439.88;5093284;28;20382;-63
2023/07/05 08:22:23;;;;;;;19.60;3.42;;;;;;;-143.48;100.00;118439.88;5093145;28;20081;-64
2023/07/05 08:24:49;;;;;;;21.00;3.70;;;;;;;-143.48;100.00;118439.88;5093219;28;20032;-63
2023/07/05 08:27:14;;;;;;;20.20;3.15;;;;;;;-143.48;100.00;118439.88;5093195;28;20467;-65
2023/07/05 08:29:41;;;;;;;21.65;3.63;;;;;;;-143.48;100.00;118439.88;5093088;28;20035;-66
2023/07/05 08:32:06;;;;;;;20.98;4.03;;;;;;;-143.48;100.00;118439.88;5074984;28;20023;-65
2023/07/05 08:34:32;;;;;;;20.00;3.72;;;;;;;-143.48;100.00;118439.88;5093020;28;20494;-66
2023/07/05 08:36:57;;;;;;;20.02;3.65;;;;;;;-143.48;100.00;118439.88;5074882;28;20087;-66
2023/07/05 08:39:22;;;;;;;20.80;3.70;;;;;;;-143.48;100.00;118439.88;5074976;28;20028;-66
2023/07/05 08:42:03;;;;;;;22.02;4.25;;;;;;;-143.48;100.00;118439.88;5093144;28;20448;-65
2023/07/05 08:44:55;;;;;;;20.65;3.78;;;;;;;-143.48;100.00;118439.88;5075030;28;20024;-67
2023/07/05 08:47:32;;;;;;;20.33;3.83;;;;;;;-143.48;100.00;118439.88;5074854;28;20038;-65
2023/07/05 08:50:16;;;;;;;15.82;3.45;;;;;;;-143.48;100.00;118439.88;5075020;28;20035;-65
2023/07/05 08:52:45;;;;;;;13.93;2.83;;;;;;;-143.48;100.00;118439.88;5074809;28;20426;-65
2023/07/05 08:55:17;;;;;;;19.80;3.72;;;;;;;-143.48;100.00;118439.88;5092948;28;20020;-65
2023/07/05 08:57:51;;;;;;;27.92;3.70;;;;;;;-143.48;100.00;118439.88;5092894;28;20024;-64
2023/07/05 09:00:24;;;;;;;16.48;3.53;;;;;;;-143.48;100.00;118439.88;5074912;28;20020;-65
2023/07/05 09:02:50;;;;;;;23.27;3.78;;;;;;;-143.48;100.00;118439.88;5092939;28;20035;-65
2023/07/05 09:05:22;;;;;;;20.08;4.03;;;;;;;-143.48;100.00;118439.88;5094005;28;20032;-66
2023/07/05 09:08:01;;;;;;;22.77;3.40;;;;;;;-143.48;100.00;118439.88;5096729;28;20055;-67
2023/07/05 09:10:39;;;;;;;19.42;3.22;;;;;;;-143.48;100.00;118439.88;5096151;28;20107;-65
2023/07/05 09:13:32;;;;;;;20.42;3.35;;;;;;;-143.48;100.00;118439.88;5096925;28;20432;-65
2023/07/05 09:16:09;;;;;;;15.52;3.55;;;;;;;-143.48;100.00;118439.88;5096836;28;20495;-66
2023/07/05 09:18:56;;;;;;;17.90;3.63;;;;;;;-143.48;100.00;118439.88;5078400;28;20107;-64
2023/07/05 09:21:47;;;;;;;23.60;4.03;;;;;;;-143.48;100.00;118439.88;5078458;28;20054;-64
2023/07/05 09:24:20;;;;;;;24.80;4.50;;;;;;;-143.48;100.00;118439.88;5096566;28;20024;-65
2023/07/05 09:26:58;;;;;;;24.08;4.22;;;;;;;-143.48;100.00;118439.88;5096626;28;20471;-65
2023/07/05 09:29:40;;;;;;;14.63;3.50;;;;;;;-143.48;100.00;118439.88;5096669;28;20027;-67
2023/07/05 09:32:17;;;;;;;20.83;3.65;;;;;;;-143.48;100.00;118439.88;5096511;28;20375;-65
2023/07/05 09:34:55;;;;;;;25.23;3.75;;;;;;;-143.48;100.00;118439.88;5096362;28;20039;-66
2023/07/05 09:37:29;;;;;;;23.02;4.03;;;;;;;-143.48;100.00;118439.88;5096236;28;20020;-67
2023/07/05 09:40:02;;;;;;;26.73;4.15;;;;;;;-143.48;100.00;118439.88;5096367;28;20031;-66
2023/07/05 09:42:35;;;;;;;22.85;4.05;;;;;;;-143.48;100.00;118439.88;5078058;28;20395;-66
2023/07/05 09:45:01;;;;;;;22.42;3.58;;;;;;;-143.48;100.00;118439.88;5096266;28;20024;-66
2023/07/05 09:47:26;;;;;;;25.20;3.72;;;;;;;-143.48;100.00;118439.88;5078098;28;20023;-64
2023/07/05 09:49:52;;;;;;;20.05;3.50;;;;;;;-143.48;100.00;118439.88;5077951;28;20024;-65
2023/07/05 09:52:22;;;;;;;19.27;3.65;;;;;;;-143.48;100.00;118439.88;5096040;28;20483;-66
2023/07/05 09:54:56;;;;;;;22.98;4.15;;;;;;;-143.48;100.00;118439.88;5096046;28;20028;-66
2023/07/05 09:57:24;;;;;;;19.77;3.60;;;;;;;-143.48;100.00;118439.88;5078126;28;20391;-66
2023/07/05 09:59:52;;;;;;;22.20;3.47;;;;;;;-143.48;100.00;118439.88;5077612;28;20028;-66
2023/07/05 10:02:22;;;;;;;17.52;3.53;;;;;;;-143.48;100.00;118439.88;5077592;28;20019;-66
2023/07/05 10:04:53;;;;;;;12.18;3.58;;;;;;;-143.48;100.00;118439.88;5077651;28;20077;-66
2023/07/05 10:07:24;;;;;;;19.83;4.03;;;;;;;-143.48;100.00;118439.88;5095587;28;20511;-67
2023/07/05 10:10:03;;;;;;;22.08;3.42;;;;;;;-143.48;100.00;118439.88;5095778;28;20596;-67
2023/07/05 10:12:37;;;;;;;24.45;3.92;;;;;;;-143.48;100.00;118439.88;5095871;28;20095;-65
2023/07/05 10:15:23;;;;;;;15.13;3.63;;;;;;;-143.48;100.00;118439.88;5095779;28;20039;-65
2023/07/05 10:17:55;;;;;;;18.70;3.97;;;;;;;-143.48;100.00;118439.88;5094009;28;20082;-66
2023/07/05 10:20:24;;;;;;;14.23;3.28;;;;;;;-143.48;100.00;118439.88;5077528;28;20038;-66
2023/07/05 10:23:04;;;;;;;21.23;4.35;;;;;;;-143.48;100.00;118439.88;5077213;28;20043;-66
2023/07/05 10:25:34;;;;;;;20.67;3.63;;;;;;;-143.48;100.00;118439.88;5077370;28;20108;-67
2023/07/05 10:28:02;;;;;;;19.95;3.45;;;;;;;-143.48;100.00;118439.88;5095558;28;20059;-66
2023/07/05 10:30:27;;;;;;;12.85;3.30;;;;;;;-143.48;100.00;118439.88;5095626;28;20019;-67
2023/07/05 10:33:16;;;;;;;13.23;3.60;;;;;;;-143.48;100.00;118439.88;5095386;28;20387;-66
2023/07/05 10:35:53;;;;;;;16.63;3.15;;;;;;;-143.48;100.00;118439.88;5077383;28;20024;-67
2023/07/05 10:38:24;;;;;;;18.75;3.60;;;;;;;-143.48;100.00;118439.88;5095385;28;20024;-67
2023/07/05 10:40:52;;;;;;;20.90;3.92;;;;;;;-143.48;100.00;118439.88;5077399;28;20368;-68
2023/07/05 10:43:18;;;;;;;15.25;3.38;;;;;;;-143.48;100.00;118439.88;5095257;28;20016;-67
2023/07/05 10:45:43;;;;;;;15.15;3.58;;;;;;;-143.48;100.00;118439.88;5095398;28;20030;-67
2023/07/05 10:48:24;;;;;;;13.23;2.80;;;;;;;-143.48;100.00;118439.88;5095256;28;20047;-67
2023/07/05 10:50:49;;;;;;;11.02;3.28;;;;;;;-143.48;100.00;118439.88;5094642;28;20081;-67
2023/07/05 10:53:21;;;;;;;13.90;3.03;;;;;;;-143.48;100.00;118439.88;5076298;28;20028;-67
2023/07/05 10:56:14;;;;;;;12.27;2.95;;;;;;;-143.48;100.00;118439.88;5076507;28;20020;-65
2023/07/05 10:58:46;;;;;;;15.77;3.40;;;;;;;-143.48;100.00;118439.88;5076331;28;20031;-68
2023/07/05 11:01:30;;;;;;;19.07;3.30;;;;;;;-143.48;100.00;118439.88;5075721;28;20023;-67
2023/07/05 11:04:02;;;;;;;15.77;3.47;;;;;;;-143.48;100.00;118439.88;5076113;28;20092;-65
2023/07/05 11:06:28;;;;;;;12.18;3.40;;;;;;;-143.48;100.00;118439.88;5094477;28;20081;-66